Time;durP1;ratioP1;P1;durP2;ratioP2;P2;SDS_P1;SDS_P2;PMS_P1;PMS_P2;Temp;Humidity;BMP_temperature;BMP_pressure;BME280_temperature;BME280_humidity;BME280_pressure;Samples;Min_cycle;Max_cycle;Signal;HPM_P1;HPM_P2
2022/01/09 00:01:59;;;;;;;120.50;53.50;;;;;;;1.54;58.31;98103.42;220667;1280;139674;-63
2022/01/09 00:07:02;;;;;;;114.40;55.00;;;;;;;1.49;58.35;98102.05;220923;1278;139723;-64
2022/01/09 00:12:06;;;;;;;113.90;53.90;;;;;;;1.43;58.46;98097.95;220810;1278;139294;-65
2022/01/09 00:17:09;;;;;;;118.80;55.20;;;;;;;1.38;58.61;98099.36;220729;1280;141135;-64
2022/01/09 00:22:14;;;;;;;124.00;58.30;;;;;;;1.32;58.50;98095.94;220500;1280;139840;-66
2022/01/09 00:27:17;;;;;;;122.60;58.30;;;;;;;1.28;58.56;98093.65;220309;1280;138735;-65
2022/01/09 00:32:20;;;;;;;121.00;57.60;;;;;;;1.26;58.60;98087.27;220490;1280;139240;-63
2022/01/09 00:37:23;;;;;;;125.40;58.70;;;;;;;1.24;58.72;98082.09;220762;1279;208184;-62
2022/01/09 00:42:26;;;;;;;113.20;56.80;;;;;;;1.23;59.09;98076.02;220757;1279;139515;-63
2022/01/09 00:47:30;;;;;;;121.70;56.20;;;;;;;1.23;59.14;98062.05;220500;1279;139517;-62
2022/01/09 00:52:33;;;;;;;115.20;55.10;;;;;;;1.24;59.19;98047.70;220738;1279;138876;-63
2022/01/09 00:57:36;;;;;;;131.30;58.70;;;;;;;1.23;59.27;98040.04;220772;1279;138750;-60
2022/01/09 01:02:40;;;;;;;129.00;56.50;;;;;;;1.23;59.41;98036.20;221009;1278;140832;-66
2022/01/09 01:07:44;;;;;;;121.90;56.60;;;;;;;1.24;59.33;98026.52;220489;1280;140651;-63
2022/01/09 01:12:48;;;;;;;124.90;57.80;;;;;;;1.23;59.28;98021.35;220555;1280;139804;-63
2022/01/09 01:17:51;;;;;;;121.20;56.20;;;;;;;1.19;59.21;98019.93;220790;1279;138833;-63
2022/01/09 01:22:57;;;;;;;124.10;57.90;;;;;;;1.21;59.38;98013.75;220817;1279;138649;-62
2022/01/09 01:28:01;;;;;;;120.20;57.50;;;;;;;1.22;59.30;98007.56;220450;1280;138675;-65
2022/01/09 01:33:04;;;;;;;121.50;57.50;;;;;;;1.15;59.18;98006.95;220534;1279;139355;-63
2022/01/09 01:38:07;;;;;;;125.70;58.40;;;;;;;1.07;59.36;98005.55;220755;1278;139727;-64
2022/01/09 01:43:11;;;;;;;129.60;57.30;;;;;;;1.02;59.48;98008.21;220860;1279;139059;-62
2022/01/09 01:48:14;;;;;;;121.60;56.10;;;;;;;1.00;59.30;97994.68;220816;1278;138620;-63
2022/01/09 01:53:19;;;;;;;123.70;56.90;;;;;;;0.92;59.38;97992.70;220856;1279;139340;-62
2022/01/09 01:58:26;;;;;;;124.50;56.00;;;;;;;0.83;59.33;97984.18;220601;1278;138908;-63
2022/01/09 02:03:29;;;;;;;114.70;56.50;;;;;;;0.75;59.42;97978.91;220747;1279;140051;-62
2022/01/09 02:08:33;;;;;;;114.60;56.70;;;;;;;0.69;59.57;97971.12;220866;1279;139703;-64
2022/01/09 02:13:40;;;;;;;116.40;55.30;;;;;;;0.67;59.62;97961.41;220823;1280;140621;-65
2022/01/09 02:18:45;;;;;;;113.00;54.20;;;;;;;0.66;59.80;97958.83;220752;1280;140111;-62
2022/01/09 02:23:49;;;;;;;123.60;56.50;;;;;;;0.67;59.99;97953.38;220722;1280;139511;-62
2022/01/09 02:28:52;;;;;;;127.10;56.60;;;;;;;0.71;60.09;97951.48;220887;1280;140441;-62
2022/01/09 02:33:55;;;;;;;119.20;56.50;;;;;;;0.75;60.25;97944.86;220844;1278;138850;-64
2022/01/09 02:38:58;;;;;;;115.10;52.80;;;;;;;0.77;60.24;97937.48;220657;1280;139616;-62
2022/01/09 02:44:07;;;;;;;112.90;53.90;;;;;;;0.78;60.23;97935.48;220785;1280;138646;-66
2022/01/09 02:49:10;;;;;;;111.20;52.90;;;;;;;0.78;60.17;97938.13;220846;1278;139100;-65
2022/01/09 02:59:34;;;;;;;104.50;50.30;;;;;;;0.82;60.46;97927.14;219978;1282;138648;-64
2022/01/09 03:04:37;;;;;;;103.20;47.90;;;;;;;0.85;60.49;97922.48;220072;1280;139556;-62
2022/01/09 03:09:41;;;;;;;101.40;50.70;;;;;;;0.89;60.49;97921.08;220643;1280;138655;-63
2022/01/09 03:14:46;;;;;;;;;;;;;;;0.92;60.67;97914.65;220668;1278;139225;-64
2022/01/09 03:19:49;;;;;;;103.50;48.30;;;;;;;0.90;60.49;97913.17;220505;1280;124970;-61
2022/01/09 03:24:53;;;;;;;100.10;48.70;;;;;;;0.89;60.61;97910.41;221022;1278;139297;-60
2022/01/09 03:29:56;;;;;;;100.10;48.50;;;;;;;0.88;60.63;97901.92;220629;1280;139018;-60
2022/01/09 03:34:59;;;;;;;102.40;50.60;;;;;;;0.91;60.69;97902.31;220533;1280;138677;-61
2022/01/09 03:40:04;;;;;;;98.90;48.90;;;;;;;0.93;60.65;97910.27;220662;1280;141000;-61
2022/01/09 03:45:08;;;;;;;;;;;;;;;0.95;60.63;97910.89;220722;1278;139952;-61
2022/01/09 03:50:12;;;;;;;96.10;47.20;;;;;;;0.95;60.67;97893.77;220518;1281;125066;-62
2022/01/09 03:55:19;;;;;;;99.80;48.50;;;;;;;0.94;60.84;97887.14;220587;1281;138817;-62
2022/01/09 04:00:24;;;;;;;98.20;49.30;;;;;;;0.98;60.83;97870.59;220721;1280;140213;-64
2022/01/09 04:05:27;;;;;;;97.30;48.40;;;;;;;1.01;60.85;97860.02;220723;1280;139577;-62
2022/01/09 04:10:32;;;;;;;104.00;49.90;;;;;;;1.03;60.85;97855.35;220683;1280;205739;-64
2022/01/09 04:15:35;;;;;;;104.10;49.80;;;;;;;1.01;60.91;97861.89;220808;1280;139216;-62
2022/01/09 04:20:38;;;;;;;104.50;48.80;;;;;;;1.03;60.90;97850.14;220556;1280;138541;-62
2022/01/09 04:25:42;;;;;;;99.30;49.30;;;;;;;1.09;60.93;97848.11;220574;1281;139338;-61
2022/01/09 04:30:45;;;;;;;107.80;50.20;;;;;;;1.13;60.92;97843.73;220493;1278;138664;-61
2022/01/09 04:35:49;;;;;;;95.50;50.00;;;;;;;1.17;60.81;97841.66;220598;1280;209367;-61
2022/01/09 04:40:52;;;;;;;99.10;49.70;;;;;;;1.16;60.68;97843.24;220769;1280;139865;-63
2022/01/09 04:45:55;;;;;;;110.80;51.90;;;;;;;1.18;60.82;97844.23;220644;1280;140493;-62
2022/01/09 04:50:58;;;;;;;105.70;50.70;;;;;;;1.18;60.74;97848.23;220403;1279;138828;-64
2022/01/09 04:56:01;;;;;;;109.00;50.40;;;;;;;1.17;60.71;97844.29;220706;1279;139383;-63
2022/01/09 05:01:04;;;;;;;100.80;50.50;;;;;;;1.14;60.85;97843.19;220843;1278;138340;-62
2022/01/09 05:06:08;;;;;;;98.20;50.80;;;;;;;1.08;60.78;97848.84;220588;1278;138951;-63
2022/01/09 05:11:11;;;;;;;102.00;50.30;;;;;;;1.01;60.70;97848.45;220680;1279;140386;-65
2022/01/09 05:16:14;;;;;;;108.40;49.80;;;;;;;0.99;60.89;97849.98;220394;1280;139561;-61
2022/01/09 05:21:17;;;;;;;103.50;50.80;;;;;;;0.94;60.77;97854.01;220363;1279;138870;-64
2022/01/09 05:26:20;;;;;;;104.10;52.30;;;;;;;0.87;60.69;97854.32;220812;1279;138630;-62
2022/01/09 05:31:23;;;;;;;103.70;51.20;;;;;;;0.78;60.79;97854.52;220774;1281;138763;-63
2022/01/09 05:36:26;;;;;;;101.10;49.90;;;;;;;0.71;60.86;97854.62;220604;1279;138960;-62
2022/01/09 05:41:29;;;;;;;97.30;47.10;;;;;;;0.65;61.11;97857.48;220757;1279;139695;-62
2022/01/09 05:46:32;;;;;;;102.80;49.10;;;;;;;0.58;60.88;97859.54;220813;1279;139196;-62
2022/01/09 05:51:35;;;;;;;98.40;47.80;;;;;;;0.49;61.00;97862.66;220504;1279;139252;-61
2022/01/09 05:56:38;;;;;;;104.20;47.10;;;;;;;0.45;61.12;97863.88;220722;1280;138862;-60
2022/01/09 06:01:41;;;;;;;89.50;45.40;;;;;;;0.43;61.04;97863.95;220741;1279;139102;-60
2022/01/09 06:06:44;;;;;;;98.80;45.90;;;;;;;0.46;61.16;97859.31;220271;1280;138903;-62
2022/01/09 06:11:47;;;;;;;106.00;47.10;;;;;;;0.54;61.07;97861.96;220570;1280;139344;-60
2022/01/09 06:16:50;;;;;;;95.00;45.70;;;;;;;0.62;61.23;97865.80;220820;1279;139208;-61
2022/01/09 06:21:53;;;;;;;92.70;45.90;;;;;;;0.73;61.33;97877.77;220545;1279;138903;-60
2022/01/09 06:26:56;;;;;;;93.70;45.10;;;;;;;0.84;61.24;97893.69;220694;1280;138856;-64
2022/01/09 06:31:59;;;;;;;97.00;44.70;;;;;;;0.90;60.92;97895.38;220540;1280;139424;-63
2022/01/09 06:37:02;;;;;;;92.50;43.60;;;;;;;0.92;60.75;97884.80;220845;1278;139556;-62
2022/01/09 06:42:06;;;;;;;88.30;43.70;;;;;;;0.92;60.86;97883.41;220746;1280;138862;-62
2022/01/09 06:47:09;;;;;;;90.00;42.80;;;;;;;0.90;60.84;97884.56;220400;1279;139397;-62
2022/01/09 06:52:12;;;;;;;80.10;38.00;;;;;;;0.94;60.97;97880.18;220626;1279;138965;-61
2022/01/09 06:57:15;;;;;;;77.20;37.50;;;;;;;1.01;60.88;97884.79;220793;1279;139191;-62
2022/01/09 07:02:18;;;;;;;83.60;40.90;;;;;;;1.05;60.73;97889.16;220589;1280;138678;-59
2022/01/09 07:07:21;;;;;;;95.30;46.80;;;;;;;1.08;60.83;97890.95;220716;1280;141007;-59
2022/01/09 07:12:24;;;;;;;93.30;44.90;;;;;;;1.11;60.68;97895.36;220658;1280;138757;-60
2022/01/09 07:17:27;;;;;;;90.00;44.70;;;;;;;1.06;60.69;97896.08;220776;1280;138900;-60
2022/01/09 07:22:30;;;;;;;90.30;43.70;;;;;;;1.04;60.70;97897.75;220628;1279;139921;-60
2022/01/09 07:27:34;;;;;;;91.70;45.00;;;;;;;1.00;60.76;97888.34;220227;1281;138191;-60
2022/01/09 07:32:37;;;;;;;91.60;43.70;;;;;;;1.00;60.85;97887.09;220762;1280;138322;-62
2022/01/09 07:37:40;;;;;;;82.90;40.90;;;;;;;1.04;60.90;97881.34;220399;1281;138592;-62
2022/01/09 07:42:46;;;;;;;81.30;39.60;;;;;;;1.10;60.97;97883.02;220623;1280;138519;-63
2022/01/09 07:47:49;;;;;;;76.60;37.20;;;;;;;1.11;60.64;97884.52;220508;1280;138933;-61
2022/01/09 07:52:53;;;;;;;73.70;35.60;;;;;;;1.15;60.70;97877.89;220374;1280;138853;-60
2022/01/09 07:57:56;;;;;;;96.40;48.20;;;;;;;1.27;61.24;97878.27;220442;1280;138629;-62
2022/01/09 08:02:59;;;;;;;77.40;36.70;;;;;;;1.61;61.44;97877.29;220727;1278;138687;-62
2022/01/09 08:08:03;;;;;;;69.50;35.20;;;;;;;1.71;60.68;97867.39;220784;1279;139222;-58
2022/01/09 08:13:06;;;;;;;64.20;33.30;;;;;;;1.69;60.24;97870.12;220338;1280;138753;-63
2022/01/09 08:18:09;;;;;;;64.30;32.90;;;;;;;1.64;60.08;97868.95;220235;1281;139069;-62
2022/01/09 08:23:12;;;;;;;68.00;32.70;;;;;;;1.57;59.98;97871.86;220415;1281;138863;-61
2022/01/09 08:28:15;;;;;;;67.10;32.70;;;;;;;1.58;60.00;97869.20;220802;1279;138929;-59
2022/01/09 08:33:23;;;;;;;446.80;289.10;;;;;;;1.60;60.05;97864.73;220491;1279;139247;-60
2022/01/09 08:38:27;;;;;;;83.30;42.10;;;;;;;1.73;60.48;97858.18;220472;1281;139196;-62
2022/01/09 08:43:31;;;;;;;66.60;32.60;;;;;;;1.81;60.08;97854.02;220701;1280;138478;-62
2022/01/09 08:48:34;;;;;;;66.80;31.00;;;;;;;1.78;59.92;97850.30;220848;1279;138605;-60
2022/01/09 08:53:37;;;;;;;57.70;29.00;;;;;;;1.81;60.10;97843.49;220365;1280;140550;-65
2022/01/09 08:58:40;;;;;;;50.60;27.50;;;;;;;1.84;59.86;97842.69;220627;1280;139042;-63
2022/01/09 09:03:44;;;;;;;130.70;68.10;;;;;;;1.92;60.30;97835.83;220636;1280;138786;-65
2022/01/09 09:08:47;;;;;;;53.50;28.10;;;;;;;2.10;60.31;97838.12;220158;1280;138812;-63
2022/01/09 09:13:50;;;;;;;49.00;26.10;;;;;;;2.12;59.93;97835.23;220524;1281;139142;-63
2022/01/09 09:18:53;;;;;;;56.90;27.10;;;;;;;2.13;59.90;97833.06;220869;1280;139211;-62
2022/01/09 09:23:56;;;;;;;57.80;27.20;;;;;;;2.15;59.93;97833.56;220448;1279;139035;-60
2022/01/09 09:28:59;;;;;;;49.30;25.90;;;;;;;2.21;59.89;97832.39;220357;1280;140338;-61
2022/01/09 09:34:04;;;;;;;46.70;24.60;;;;;;;2.30;59.94;97827.70;220382;1280;138689;-61
2022/01/09 09:39:08;;;;;;;45.90;25.10;;;;;;;2.44;59.96;97818.32;220550;1280;138890;-59
2022/01/09 09:44:12;;;;;;;46.20;24.30;;;;;;;2.57;59.85;97814.52;220634;1280;139657;-61
2022/01/09 09:49:16;;;;;;;43.70;24.00;;;;;;;2.67;59.82;97813.84;220535;1280;138844;-61
2022/01/09 09:54:19;;;;;;;43.50;24.00;;;;;;;2.78;59.79;97814.70;220430;1280;139778;-62
2022/01/09 09:59:24;;;;;;;42.10;23.80;;;;;;;2.92;59.54;97811.19;220728;1279;139354;-62
2022/01/09 10:04:27;;;;;;;45.50;23.40;;;;;;;3.08;59.63;97807.90;220539;1279;138756;-62
2022/01/09 10:09:30;;;;;;;41.80;22.00;;;;;;;3.26;59.49;97808.71;220310;1280;138732;-54
2022/01/09 10:14:34;;;;;;;164.00;93.30;;;;;;;3.46;59.68;97808.73;220451;1278;138192;-60
2022/01/09 10:19:43;;;;;;;44.30;24.70;;;;;;;3.75;59.97;97808.20;220944;1278;139397;-62
2022/01/09 10:24:47;;;;;;;158.30;90.10;;;;;;;3.98;59.59;97806.42;220770;1280;139461;-62
2022/01/09 10:29:50;;;;;;;73.30;38.10;;;;;;;4.26;59.85;97805.41;220442;1279;139037;-62
2022/01/09 10:35:09;;;;;;;42.70;22.60;;;;;;;4.48;59.28;97803.80;220699;1278;138519;-62
2022/01/09 10:40:21;;;;;;;43.30;23.20;;;;;;;4.63;58.99;97800.11;220813;1278;141513;-59
2022/01/09 10:45:24;;;;;;;42.60;22.30;;;;;;;4.80;58.65;97790.86;220746;1278;139907;-57
2022/01/09 10:50:29;;;;;;;43.20;22.90;;;;;;;4.91;58.18;97783.71;220507;1280;138620;-61
2022/01/09 10:55:32;;;;;;;46.80;23.60;;;;;;;5.04;58.03;97782.21;220678;1279;138692;-60
2022/01/09 11:00:35;;;;;;;47.60;23.90;;;;;;;5.13;58.03;97776.80;220488;1278;138656;-55
2022/01/09 11:05:39;;;;;;;50.80;23.60;;;;;;;5.15;57.74;97776.63;220548;1279;138799;-58
2022/01/09 11:10:43;;;;;;;47.00;24.90;;;;;;;5.08;57.27;97771.27;220732;1279;138757;-60
2022/01/09 11:21:10;;;;;;;50.60;25.50;;;;;;;5.05;57.40;97766.89;220846;1278;140524;-57
2022/01/09 11:26:15;;;;;;;40.70;22.50;;;;;;;5.02;57.37;97764.27;220835;1279;138802;-59
2022/01/09 11:31:37;;;;;;;43.00;22.10;;;;;;;4.94;57.23;97763.14;220275;1280;138445;-59
2022/01/09 11:36:49;;;;;;;37.50;21.50;;;;;;;4.87;56.97;97766.55;220501;1279;139892;-58
2022/01/09 11:42:07;;;;;;;39.30;21.60;;;;;;;4.82;57.27;97764.02;220788;1279;138525;-58
2022/01/09 11:47:10;;;;;;;37.90;21.50;;;;;;;4.80;57.01;97769.42;220644;1279;140902;-57
2022/01/09 11:52:14;;;;;;;39.70;20.30;;;;;;;4.78;57.13;97767.43;220689;1278;139251;-57
2022/01/09 11:57:48;;;;;;;72.90;43.50;;;;;;;4.79;57.46;97763.68;220660;1280;139949;-57
2022/01/09 12:02:51;;;;;;;41.70;23.00;;;;;;;4.88;57.64;97765.82;220523;1280;142221;-57
2022/01/09 12:07:54;;;;;;;37.80;20.40;;;;;;;4.87;57.02;97763.42;220500;1280;140715;-57
2022/01/09 12:12:57;;;;;;;38.30;19.70;;;;;;;4.87;57.13;97757.09;220889;1279;138713;-57
2022/01/09 12:18:03;;;;;;;36.60;20.20;;;;;;;4.86;57.19;97762.40;220181;1280;140053;-60
2022/01/09 12:23:19;;;;;;;38.10;19.90;;;;;;;4.84;57.28;97755.81;220158;1280;138860;-56
2022/01/09 12:28:24;;;;;;;35.20;19.20;;;;;;;4.87;57.27;97761.47;220621;1279;139130;-58
2022/01/09 12:33:28;;;;;;;33.90;19.70;;;;;;;4.92;56.93;97758.35;220789;1279;138487;-60
2022/01/09 12:38:54;;;;;;;37.90;19.80;;;;;;;4.96;57.38;97754.23;220708;1279;138733;-58
2022/01/09 12:44:04;;;;;;;68.90;39.60;;;;;;;5.04;57.52;97751.31;220728;1279;140048;-57
2022/01/09 12:49:12;;;;;;;47.50;23.20;;;;;;;5.24;57.47;97750.27;220188;1281;139746;-57
2022/01/09 12:54:16;;;;;;;38.80;20.70;;;;;;;5.35;57.08;97746.06;220431;1280;139669;-58
2022/01/09 12:59:21;;;;;;;36.00;19.40;;;;;;;5.44;57.19;97747.45;220703;1279;139318;-58
2022/01/09 13:04:24;;;;;;;43.60;24.30;;;;;;;5.61;57.88;97750.45;220793;1279;138835;-58
2022/01/09 13:09:29;;;;;;;35.50;19.40;;;;;;;5.80;57.12;97751.89;220747;1279;138230;-58
2022/01/09 13:14:32;;;;;;;33.70;18.60;;;;;;;5.74;56.62;97759.11;220364;1280;139030;-58
2022/01/09 13:19:36;;;;;;;35.50;18.80;;;;;;;5.65;56.37;97760.73;220690;1279;139854;-58
2022/01/09 13:24:44;;;;;;;36.50;17.70;;;;;;;5.57;56.18;97757.39;220735;1280;138795;-58
2022/01/09 13:29:56;;;;;;;31.90;17.60;;;;;;;5.50;56.20;97760.99;220686;1278;138542;-58
2022/01/09 13:35:00;;;;;;;28.20;16.10;;;;;;;5.44;56.32;97761.17;220687;1279;139262;-59
2022/01/09 13:40:03;;;;;;;28.50;16.20;;;;;;;5.34;56.04;97763.52;220620;1278;139102;-59
2022/01/09 13:45:12;;;;;;;25.70;14.20;;;;;;;5.22;55.94;97763.94;220660;1280;139116;-59
2022/01/09 13:50:20;;;;;;;24.50;14.20;;;;;;;5.10;56.25;97767.27;220464;1279;140446;-58
2022/01/09 13:55:26;;;;;;;24.50;14.40;;;;;;;4.99;55.85;97771.11;220871;1279;138453;-58
2022/01/09 14:00:31;;;;;;;27.40;15.60;;;;;;;4.87;56.09;97773.76;220603;1278;140682;-58
2022/01/09 14:05:45;;;;;;;33.50;16.80;;;;;;;4.78;56.24;97785.40;221103;1277;138799;-60
2022/01/09 14:10:55;;;;;;;34.50;18.70;;;;;;;4.69;56.32;97785.39;221076;1279;138925;-59
2022/01/09 14:16:13;;;;;;;34.00;19.70;;;;;;;4.60;56.58;97787.48;221298;1279;138080;-58
2022/01/09 14:21:17;;;;;;;38.60;21.90;;;;;;;4.49;56.40;97791.08;221189;1279;138847;-59
2022/01/09 14:26:37;;;;;;;44.20;22.60;;;;;;;4.40;56.44;97792.30;221506;1278;138913;-58
2022/01/09 14:31:40;;;;;;;42.90;24.20;;;;;;;4.31;56.86;97797.94;221416;1278;138419;-57
2022/01/09 14:36:46;;;;;;;44.10;23.60;;;;;;;4.23;56.72;97800.65;221222;1278;138504;-58
2022/01/09 14:41:50;;;;;;;;;;;;;;;4.13;56.61;97805.42;221101;1278;138887;-57
2022/01/09 14:46:53;;;;;;;42.60;23.80;;;;;;;4.02;57.14;97808.30;220892;1278;124734;-57
2022/01/09 14:51:57;;;;;;;241.80;132.10;;;;;;;3.96;57.14;97810.42;220661;1278;138954;-57
2022/01/09 14:57:00;;;;;;;54.00;30.10;;;;;;;4.37;60.20;97812.64;220472;1279;138916;-57
2022/01/09 15:02:03;;;;;;;47.20;25.60;;;;;;;4.31;57.48;97814.92;220700;1279;139646;-59
2022/01/09 15:07:06;;;;;;;44.90;25.00;;;;;;;4.08;57.32;97818.70;220766;1278;139234;-58
2022/01/09 15:12:10;;;;;;;43.40;23.70;;;;;;;3.84;56.97;97824.23;220068;1281;138966;-55
2022/01/09 15:17:13;;;;;;;46.40;24.50;;;;;;;3.60;57.16;97824.09;220607;1280;138847;-57
2022/01/09 15:22:17;;;;;;;48.20;24.60;;;;;;;3.43;57.25;97829.58;220672;1279;139081;-57
2022/01/09 15:27:20;;;;;;;44.50;22.90;;;;;;;3.25;57.28;97836.84;220622;1279;139583;-56
2022/01/09 15:32:23;;;;;;;44.70;23.10;;;;;;;3.11;57.46;97844.73;220611;1279;139907;-59
2022/01/09 15:37:27;;;;;;;49.00;24.70;;;;;;;3.01;57.70;97847.69;220748;1279;139837;-59
2022/01/09 15:42:29;;;;;;;45.50;23.40;;;;;;;2.91;57.84;97853.45;220705;1279;139101;-59
2022/01/09 15:47:32;;;;;;;64.10;32.90;;;;;;;2.85;58.18;97853.92;220220;1281;139293;-59
2022/01/09 15:52:36;;;;;;;135.50;77.00;;;;;;;2.89;58.65;97857.56;220662;1279;139138;-58
2022/01/09 15:57:42;;;;;;;52.00;24.80;;;;;;;2.97;58.52;97861.53;220485;1280;140294;-58
2022/01/09 16:02:45;;;;;;;45.80;23.30;;;;;;;2.99;58.12;97866.88;220518;1280;233940;-57
2022/01/09 16:07:48;;;;;;;48.00;23.50;;;;;;;2.97;58.10;97866.64;220649;1279;167687;-58
2022/01/09 16:12:51;;;;;;;45.80;22.00;;;;;;;2.92;57.91;97872.50;220600;1280;139625;-58
2022/01/09 16:17:55;;;;;;;40.60;21.50;;;;;;;2.82;57.72;97882.60;220574;1280;139810;-59
2022/01/09 16:22:58;;;;;;;48.10;25.10;;;;;;;2.72;57.82;97886.27;220621;1280;140657;-58
2022/01/09 16:28:02;;;;;;;42.80;22.50;;;;;;;2.75;58.36;97890.14;220791;1279;139277;-58
2022/01/09 16:33:06;;;;;;;45.20;23.50;;;;;;;2.71;57.90;97889.65;220729;1279;139299;-59
2022/01/09 16:38:09;;;;;;;48.70;23.00;;;;;;;2.58;57.84;97895.89;220652;1280;139103;-59
2022/01/09 16:43:12;;;;;;;53.10;25.10;;;;;;;2.48;57.78;97902.46;220738;1279;138821;-58
2022/01/09 16:48:15;;;;;;;45.30;23.10;;;;;;;2.41;57.89;97909.81;220719;1279;139282;-59
2022/01/09 16:53:18;;;;;;;51.20;24.50;;;;;;;2.32;57.94;97914.62;220628;1280;139183;-59
2022/01/09 16:58:21;;;;;;;51.80;25.00;;;;;;;2.26;57.84;97923.49;220630;1279;139251;-56
2022/01/09 17:03:25;;;;;;;48.20;23.50;;;;;;;2.22;57.96;97924.70;220586;1280;138861;-59
2022/01/09 17:08:39;;;;;;;44.60;23.40;;;;;;;2.16;57.97;97926.56;220374;1280;139006;-58
2022/01/09 17:13:43;;;;;;;47.50;24.30;;;;;;;2.08;57.98;97925.17;220780;1280;140165;-58
2022/01/09 17:18:46;;;;;;;53.20;25.40;;;;;;;2.02;58.16;97929.27;220366;1280;139033;-58
2022/01/09 17:23:49;;;;;;;49.20;23.90;;;;;;;1.97;58.23;97930.92;220662;1280;139791;-58
2022/01/09 17:28:52;;;;;;;96.00;56.20;;;;;;;1.93;58.74;97929.19;220565;1279;138909;-58
2022/01/09 17:33:55;;;;;;;56.10;27.80;;;;;;;2.18;59.98;97932.90;220745;1278;139279;-58
2022/01/09 17:38:59;;;;;;;50.20;25.60;;;;;;;2.27;59.04;97939.01;220750;1280;139313;-58
2022/01/09 17:44:03;;;;;;;55.30;28.80;;;;;;;2.13;58.56;97944.19;220747;1280;138990;-57
2022/01/09 17:49:09;;;;;;;53.80;28.60;;;;;;;2.03;58.56;97953.20;220458;1280;139243;-58
2022/01/09 17:54:12;;;;;;;52.00;26.90;;;;;;;1.92;58.64;97953.56;220494;1281;140416;-59
2022/01/09 17:59:15;;;;;;;62.40;28.50;;;;;;;1.82;58.63;97961.69;220749;1280;138839;-59
2022/01/09 18:04:18;;;;;;;57.60;29.10;;;;;;;1.76;58.82;97969.46;220789;1278;139591;-59
2022/01/09 18:09:22;;;;;;;58.80;30.20;;;;;;;1.70;58.91;97973.95;220483;1280;139007;-58
2022/01/09 18:14:25;;;;;;;66.20;31.30;;;;;;;1.63;58.96;97980.83;220451;1280;139499;-59
2022/01/09 18:19:28;;;;;;;124.60;73.00;;;;;;;1.59;59.04;97988.36;220844;1280;139184;-60
2022/01/09 18:24:32;;;;;;;76.00;34.70;;;;;;;1.83;61.09;97991.35;220689;1279;139815;-57
2022/01/09 18:29:35;;;;;;;69.80;31.20;;;;;;;2.06;59.93;97991.38;220377;1281;139311;-58
2022/01/09 18:34:38;;;;;;;67.60;33.00;;;;;;;2.03;59.22;97997.13;220643;1280;142244;-58
2022/01/09 18:39:42;;;;;;;71.40;32.50;;;;;;;1.95;59.19;98002.19;220645;1280;139562;-57
2022/01/09 18:44:45;;;;;;;68.90;32.70;;;;;;;1.87;59.08;98009.38;220551;1280;139302;-58
2022/01/09 18:49:49;;;;;;;67.10;32.70;;;;;;;1.76;59.04;98016.13;220538;1280;139466;-59
2022/01/09 18:54:52;;;;;;;67.90;31.90;;;;;;;1.68;59.03;98017.90;220388;1280;138666;-57
2022/01/09 18:59:57;;;;;;;62.50;31.90;;;;;;;1.58;59.08;98023.18;220235;1281;140548;-59
2022/01/09 19:05:04;;;;;;;66.70;32.40;;;;;;;1.49;59.16;98025.66;220454;1279;139218;-58
2022/01/09 19:10:09;;;;;;;67.70;33.80;;;;;;;1.39;59.12;98025.89;220567;1280;141178;-59
2022/01/09 19:15:12;;;;;;;69.00;33.40;;;;;;;1.32;59.33;98031.98;220523;1280;139540;-58
2022/01/09 19:20:17;;;;;;;67.70;33.00;;;;;;;1.24;59.38;98036.48;220696;1280;138876;-58
2022/01/09 19:25:20;;;;;;;95.50;53.60;;;;;;;1.38;60.90;98039.77;220644;1280;139194;-58
2022/01/09 19:30:23;;;;;;;70.50;35.20;;;;;;;1.64;60.83;98040.77;220596;1280;139490;-58
2022/01/09 19:35:29;;;;;;;71.50;33.90;;;;;;;1.62;59.76;98041.73;220562;1280;138598;-60
2022/01/09 19:40:33;;;;;;;72.50;34.60;;;;;;;1.44;59.39;98044.58;220766;1280;139143;-58
2022/01/09 19:45:36;;;;;;;72.10;35.10;;;;;;;1.29;59.49;98050.98;220475;1279;140351;-58
2022/01/09 19:50:40;;;;;;;74.60;37.30;;;;;;;1.16;59.51;98061.10;220182;1280;138904;-58
2022/01/09 19:55:44;;;;;;;70.10;35.00;;;;;;;1.07;59.61;98065.14;220657;1280;138734;-57
2022/01/09 20:00:48;;;;;;;79.40;38.80;;;;;;;0.99;59.79;98072.95;220708;1280;139358;-59
2022/01/09 20:05:54;;;;;;;81.40;39.00;;;;;;;0.95;59.85;98074.17;220651;1280;139950;-59
2022/01/09 20:11:00;;;;;;;79.10;40.00;;;;;;;0.87;59.83;98072.02;220481;1280;139050;-60
2022/01/09 20:16:04;;;;;;;84.70;41.70;;;;;;;0.81;59.85;98077.64;220143;1281;140291;-59
2022/01/09 20:21:07;;;;;;;190.00;106.60;;;;;;;1.08;62.22;98075.56;220812;1278;138713;-59
2022/01/09 20:26:13;;;;;;;95.60;44.60;;;;;;;1.51;61.97;98080.66;220018;1280;139356;-60
2022/01/09 20:31:17;;;;;;;87.50;44.20;;;;;;;1.46;60.28;98085.74;220814;1280;138848;-61
2022/01/09 20:36:22;;;;;;;99.00;48.10;;;;;;;1.29;59.93;98093.41;220700;1279;139386;-59
2022/01/09 20:41:26;;;;;;;98.60;49.90;;;;;;;1.19;59.84;98098.55;220604;1280;139240;-60
2022/01/09 20:46:30;;;;;;;109.20;53.50;;;;;;;1.06;59.70;98103.92;220550;1279;138795;-61
2022/01/09 20:51:33;;;;;;;111.80;54.40;;;;;;;0.93;59.87;98110.55;220597;1280;139418;-60
2022/01/09 20:56:36;;;;;;;135.80;56.90;;;;;;;0.81;59.97;98120.77;220687;1280;138962;-58
2022/01/09 21:01:39;;;;;;;118.40;56.20;;;;;;;0.65;59.77;98129.04;221030;1277;141835;-58
2022/01/09 21:06:42;;;;;;;112.40;54.00;;;;;;;0.54;59.89;98138.55;220552;1279;138562;-58
2022/01/09 21:11:48;;;;;;;119.70;56.20;;;;;;;0.42;59.99;98137.39;220586;1279;139396;-59
2022/01/09 21:16:52;;;;;;;121.70;57.70;;;;;;;0.32;60.11;98144.73;220178;1280;139787;-58
2022/01/09 21:21:55;;;;;;;124.90;57.60;;;;;;;0.23;60.29;98145.55;220818;1279;140752;-56
2022/01/09 21:26:59;;;;;;;113.70;55.70;;;;;;;0.14;60.36;98152.34;220714;1280;140792;-56
2022/01/09 21:32:03;;;;;;;120.60;57.30;;;;;;;0.05;60.47;98160.14;220701;1280;139875;-56
2022/01/09 21:37:06;;;;;;;124.70;57.80;;;;;;;0.02;60.56;98162.52;220737;1278;139822;-59
2022/01/09 21:42:09;;;;;;;118.20;58.90;;;;;;;-0.01;60.64;98165.06;220695;1279;140452;-58
2022/01/09 21:47:13;;;;;;;118.20;58.00;;;;;;;-0.09;60.71;98168.61;220727;1279;139756;-60
2022/01/09 21:52:17;;;;;;;124.10;58.30;;;;;;;-0.17;60.82;98173.23;220532;1280;138985;-61
2022/01/09 21:57:22;;;;;;;119.90;58.20;;;;;;;-0.25;60.77;98171.60;220014;1281;139422;-60
2022/01/09 22:02:25;;;;;;;124.60;58.30;;;;;;;-0.30;61.02;98178.20;220812;1278;139920;-60
2022/01/09 22:07:28;;;;;;;130.70;60.80;;;;;;;-0.32;61.14;98190.10;220953;1279;140265;-61
2022/01/09 22:12:31;;;;;;;129.00;61.90;;;;;;;-0.29;61.29;98195.77;220650;1279;139503;-60
2022/01/09 22:17:35;;;;;;;127.40;61.60;;;;;;;-0.30;61.04;98205.39;220647;1280;140407;-59
2022/01/09 22:22:38;;;;;;;125.40;62.20;;;;;;;-0.35;61.09;98215.83;220493;1279;138887;-61
2022/01/09 22:27:41;;;;;;;135.00;65.00;;;;;;;-0.42;61.03;98218.68;220746;1279;139376;-58
2022/01/09 22:32:44;;;;;;;140.00;67.00;;;;;;;-0.49;61.13;98230.04;220699;1280;139511;-59
2022/01/09 22:37:49;;;;;;;151.80;67.00;;;;;;;-0.54;61.15;98236.10;220887;1279;139613;-60
2022/01/09 22:42:58;;;;;;;138.90;64.80;;;;;;;-0.59;61.24;98237.81;220793;1279;139104;-61
2022/01/09 22:48:02;;;;;;;136.30;64.00;;;;;;;-0.67;61.32;98237.70;220864;1279;138830;-59
2022/01/09 22:53:05;;;;;;;141.60;64.60;;;;;;;-0.71;61.50;98242.36;220703;1279;138830;-58
2022/01/09 22:58:08;;;;;;;137.80;64.10;;;;;;;-0.72;61.59;98237.34;220519;1280;139431;-59
2022/01/09 23:03:14;;;;;;;141.00;66.50;;;;;;;-0.73;61.66;98249.21;220773;1279;140075;-56
2022/01/09 23:08:17;;;;;;;140.90;66.60;;;;;;;-0.74;61.76;98256.73;220791;1278;139947;-57